Time;durP1;ratioP1;P1;durP2;ratioP2;P2;SDS_P1;SDS_P2;PMS_P1;PMS_P2;Temp;Humidity;BMP_temperature;BMP_pressure;BME280_temperature;BME280_humidity;BME280_pressure;Samples;Min_cycle;Max_cycle;Signal;HPM_P1;HPM_P2
2022/10/18 00:00:07;;;;;;;5.57;1.35;;;22.00;77.40;;;;;;5026835;28;20112;-69
2022/10/18 00:03:13;;;;;;;0.70;0.55;;;21.90;77.30;;;;;;5022399;28;20411;-68
2022/10/18 00:06:19;;;;;;;4.47;0.65;;;21.90;77.20;;;;;;5024973;28;20491;-68
2022/10/18 00:09:26;;;;;;;0.95;0.60;;;21.90;77.10;;;;;;5022374;28;20033;-69
2022/10/18 00:12:32;;;;;;;2.50;1.17;;;21.90;77.00;;;;;;5020509;28;20033;-69
2022/10/18 00:15:39;;;;;;;1.50;0.63;;;21.90;77.00;;;;;;5023479;28;20047;-68
2022/10/18 00:18:47;;;;;;;3.53;0.88;;;21.80;76.90;;;;;;5020303;28;20022;-68
2022/10/18 00:21:53;;;;;;;3.53;0.93;;;21.90;76.90;;;;;;5020591;28;20032;-68
2022/10/18 00:24:59;;;;;;;2.28;1.33;;;21.80;76.80;;;;;;5024479;28;20052;-68
2022/10/18 00:28:05;;;;;;;5.00;0.95;;;21.80;76.70;;;;;;5028280;28;20029;-68
2022/10/18 00:31:11;;;;;;;0.80;0.77;;;21.80;76.90;;;;;;5023583;28;20071;-68
2022/10/18 00:34:17;;;;;;;4.30;1.70;;;21.80;76.90;;;;;;5023925;28;20391;-69
2022/10/18 00:37:23;;;;;;;3.90;0.93;;;21.80;77.10;;;;;;5023081;28;20393;-68
2022/10/18 00:40:29;;;;;;;1.00;0.90;;;21.80;77.10;;;;;;5026569;28;20101;-69
2022/10/18 00:43:35;;;;;;;1.35;0.80;;;21.70;77.10;;;;;;5025542;28;20034;-69
2022/10/18 00:46:41;;;;;;;3.85;1.67;;;21.70;77.30;;;;;;5026272;28;20030;-68
2022/10/18 00:49:50;;;;;;;3.92;1.35;;;21.70;77.50;;;;;;5023877;28;20030;-69
2022/10/18 00:52:57;;;;;;;7.53;1.30;;;21.70;77.70;;;;;;5021985;28;20034;-69
2022/10/18 00:56:03;;;;;;;2.55;1.38;;;21.70;78.00;;;;;;5026700;28;20129;-68
2022/10/18 00:59:09;;;;;;;1.55;1.08;;;21.70;78.40;;;;;;5023772;28;20031;-69
2022/10/18 01:02:17;;;;;;;3.10;1.15;;;21.60;78.40;;;;;;5026194;28;20026;-69
2022/10/18 01:05:23;;;;;;;5.07;1.27;;;21.70;78.60;;;;;;5025735;28;20030;-69
2022/10/18 01:08:09;;;;;;;3.08;1.48;;;21.60;78.60;;;;;;5023405;28;20034;-69
2022/10/18 01:10:54;;;;;;;3.75;1.85;;;21.60;78.60;;;;;;5025749;28;20056;-69
2022/10/18 01:13:30;;;;;;;4.55;1.20;;;21.60;78.70;;;;;;5022088;28;20036;-69
2022/10/18 01:16:15;;;;;;;4.80;1.10;;;21.50;78.70;;;;;;5022371;28;20176;-69
2022/10/18 01:19:30;;;;;;;4.05;1.20;;;21.50;78.70;;;;;;5021383;28;20147;-69
2022/10/18 01:22:45;;;;;;;2.60;1.30;;;21.50;78.80;;;;;;4950986;28;20130;-69
2022/10/18 01:25:54;;;;;;;3.30;1.67;;;21.50;78.90;;;;;;5021595;28;20443;-69
2022/10/18 01:29:15;;;;;;;2.95;1.58;;;21.50;78.90;;;;;;5025813;28;20452;-69
2022/10/18 01:32:05;;;;;;;2.53;1.17;;;21.40;78.90;;;;;;5023000;28;20056;-70
2022/10/18 01:34:52;;;;;;;3.90;2.25;;;21.40;79.00;;;;;;5024401;28;20025;-69
2022/10/18 01:37:21;;;;;;;21.38;2.95;;;21.50;79.10;;;;;;5024001;28;20112;-69
2022/10/18 01:39:51;;;;;;;9.93;1.60;;;21.40;79.00;;;;;;5025527;28;20097;-69
2022/10/18 01:42:20;;;;;;;5.82;1.83;;;21.40;79.20;;;;;;5023930;28;20018;-69
2022/10/18 01:44:49;;;;;;;11.45;3.70;;;21.40;79.30;;;;;;5025830;28;20104;-69
2022/10/18 01:47:17;;;;;;;3.85;1.05;;;21.40;79.20;;;;;;5022888;28;20029;-68
2022/10/18 01:49:43;;;;;;;3.38;1.30;;;21.40;79.10;;;;;;5019758;28;20025;-69
2022/10/18 01:52:14;;;;;;;22.38;1.73;;;21.40;79.20;;;;;;5021802;28;20080;-69
2022/10/18 01:54:47;;;;;;;4.80;1.13;;;21.40;79.30;;;;;;5027000;28;20025;-68
2022/10/18 01:57:26;;;;;;;4.63;1.90;;;21.40;79.40;;;;;;5019864;28;20022;-69
2022/10/18 01:59:55;;;;;;;3.33;1.45;;;21.30;79.40;;;;;;5021512;28;20030;-70
2022/10/18 02:02:54;;;;;;;4.53;1.50;;;21.30;79.50;;;;;;5021760;28;20029;-69
2022/10/18 02:05:32;;;;;;;3.85;1.35;;;21.40;79.50;;;;;;5001860;28;20052;-69
2022/10/18 02:08:25;;;;;;;5.63;1.45;;;21.40;79.50;;;;;;5021626;28;20036;-69
2022/10/18 02:11:08;;;;;;;4.85;1.58;;;21.30;79.40;;;;;;5019388;28;20025;-69
2022/10/18 02:14:02;;;;;;;1.98;1.00;;;21.30;79.50;;;;;;5026624;28;20434;-70
2022/10/18 02:16:42;;;;;;;6.43;1.77;;;21.30;79.50;;;;;;5020804;28;20544;-69
2022/10/18 02:19:30;;;;;;;7.50;1.50;;;21.30;79.70;;;;;;5021299;28;20025;-69
2022/10/18 02:21:58;;;;;;;2.55;1.17;;;21.30;79.80;;;;;;5021450;28;20396;-69
2022/10/18 02:24:32;;;;;;;5.15;1.55;;;21.30;79.90;;;;;;5024875;28;20017;-69
2022/10/18 02:26:59;;;;;;;4.83;1.20;;;21.30;79.90;;;;;;5025771;28;20028;-69
2022/10/18 02:29:25;;;;;;;4.18;1.67;;;21.20;80.00;;;;;;5024181;28;20021;-68
2022/10/18 02:32:02;;;;;;;4.47;1.77;;;21.30;80.00;;;;;;5018367;28;20029;-69
2022/10/18 02:34:43;;;;;;;4.88;2.05;;;21.20;80.00;;;;;;5026531;28;20104;-70
2022/10/18 02:37:12;;;;;;;3.30;1.23;;;21.20;80.10;;;;;;5025927;28;20025;-69
2022/10/18 02:39:49;;;;;;;2.03;1.00;;;21.20;80.10;;;;;;5024148;28;20033;-69
2022/10/18 02:42:16;;;;;;;3.42;1.15;;;21.20;80.10;;;;;;5030002;28;20163;-68
2022/10/18 02:44:43;;;;;;;12.98;1.38;;;21.20;80.10;;;;;;5026978;28;20380;-69
2022/10/18 02:47:11;;;;;;;19.35;2.15;;;21.20;80.30;;;;;;5027936;28;20017;-69
2022/10/18 02:49:37;;;;;;;19.10;2.40;;;21.20;80.90;;;;;;5023378;28;20047;-69
2022/10/18 02:52:04;;;;;;;15.50;2.53;;;21.20;81.50;;;;;;5022596;28;20049;-68
2022/10/18 02:54:30;;;;;;;5.78;2.00;;;21.20;81.60;;;;;;5029576;28;20491;-69
2022/10/18 02:56:57;;;;;;;4.38;1.20;;;21.20;81.60;;;;;;5028697;28;20029;-69
2022/10/18 02:59:23;;;;;;;3.42;1.35;;;21.20;81.20;;;;;;5030071;28;20018;-69
2022/10/18 03:01:50;;;;;;;2.80;1.90;;;21.20;80.80;;;;;;5026806;28;20018;-69
2022/10/18 03:04:16;;;;;;;1.45;0.80;;;21.20;80.60;;;;;;5025414;28;20048;-68
2022/10/18 03:06:43;;;;;;;1.77;0.93;;;21.10;80.30;;;;;;5028516;28;20097;-68
2022/10/18 03:09:09;;;;;;;4.18;1.27;;;21.10;80.10;;;;;;5030147;28;20083;-67
2022/10/18 03:11:36;;;;;;;2.78;1.85;;;21.10;80.10;;;;;;5023938;28;20052;-69
2022/10/18 03:14:02;;;;;;;5.35;1.45;;;21.10;80.00;;;;;;5024301;28;20037;-69
2022/10/18 03:16:29;;;;;;;4.80;1.48;;;21.00;80.00;;;;;;5024208;28;20484;-69
2022/10/18 03:18:55;;;;;;;5.75;1.83;;;21.10;80.00;;;;;;5027774;28;20387;-68
2022/10/18 03:21:22;;;;;;;6.45;1.88;;;21.00;79.90;;;;;;5022596;28;20021;-69
2022/10/18 03:23:48;;;;;;;5.68;1.20;;;21.00;79.80;;;;;;5023071;28;20112;-69
2022/10/18 03:26:15;;;;;;;8.07;1.00;;;21.00;79.80;;;;;;5024035;28;20111;-69
2022/10/18 03:28:41;;;;;;;5.25;2.03;;;21.00;79.80;;;;;;5029529;28;20052;-68
2022/10/18 03:31:07;;;;;;;5.05;1.55;;;21.00;80.40;;;;;;5026209;28;20399;-69
2022/10/18 03:33:34;;;;;;;3.75;1.50;;;21.00;79.80;;;;;;5027971;28;20476;-68
2022/10/18 03:36:00;;;;;;;3.65;1.60;;;20.90;79.80;;;;;;5025252;28;20121;-70
2022/10/18 03:38:27;;;;;;;8.98;1.92;;;20.90;79.70;;;;;;5028109;28;20388;-70
2022/10/18 03:40:53;;;;;;;9.30;2.03;;;20.90;79.80;;;;;;5023019;28;20017;-66
2022/10/18 03:43:20;;;;;;;5.03;2.25;;;20.90;79.90;;;;;;5018808;28;20033;-68
2022/10/18 03:45:46;;;;;;;7.38;2.20;;;20.90;79.80;;;;;;5027469;28;20022;-69
2022/10/18 03:48:13;;;;;;;5.47;2.17;;;20.90;79.80;;;;;;5023293;28;20025;-68
2022/10/18 03:50:39;;;;;;;8.43;2.42;;;20.90;79.80;;;;;;5029061;28;20025;-68
2022/10/18 03:53:06;;;;;;;9.90;2.67;;;20.90;79.80;;;;;;5026570;28;20042;-67
2022/10/18 03:55:32;;;;;;;5.65;2.30;;;20.80;79.70;;;;;;5020559;28;20026;-67
2022/10/18 03:57:59;;;;;;;7.60;4.25;;;20.80;79.80;;;;;;5023256;28;20025;-66
2022/10/18 04:00:25;;;;;;;55.33;32.30;;;20.80;79.90;;;;;;5022679;28;20029;-67
2022/10/18 04:03:31;;;;;;;17.83;11.57;;;20.80;79.50;;;;;;5022690;28;20079;-67
2022/10/18 04:06:37;;;;;;;22.20;10.50;;;20.70;80.00;;;;;;5021148;28;20133;-67
2022/10/18 04:09:04;;;;;;;59.60;24.55;;;20.70;81.30;;;;;;5027382;28;20060;-67
2022/10/18 04:11:31;;;;;;;148.27;66.47;;;20.60;81.30;;;;;;5025705;28;20041;-66
2022/10/18 04:13:57;;;;;;;114.63;51.38;;;20.70;81.20;;;;;;5029134;28;20599;-67
2022/10/18 04:16:24;;;;;;;84.32;40.83;;;20.60;81.40;;;;;;5026837;28;20030;-66
2022/10/18 04:18:50;;;;;;;68.82;39.08;;;20.60;81.70;;;;;;5026904;28;20021;-66
2022/10/18 04:21:17;;;;;;;66.18;37.85;;;20.70;81.90;;;;;;5019878;28;20218;-67
2022/10/18 04:23:43;;;;;;;46.88;27.20;;;20.60;81.80;;;;;;5023238;28;20049;-68
2022/10/18 04:26:10;;;;;;;33.63;17.92;;;20.60;81.60;;;;;;5027467;28;20491;-68
2022/10/18 04:28:38;;;;;;;20.98;12.20;;;20.60;81.50;;;;;;5023717;28;20100;-66
2022/10/18 04:31:05;;;;;;;17.00;9.15;;;20.60;82.00;;;;;;5025846;28;20091;-67
2022/10/18 04:33:32;;;;;;;32.33;9.15;;;20.60;81.40;;;;;;5024653;28;20084;-69
2022/10/18 04:35:58;;;;;;;26.40;8.88;;;20.60;81.60;;;;;;5027270;28;20030;-70
2022/10/18 04:38:25;;;;;;;12.75;6.97;;;20.60;81.70;;;;;;5021708;28;20519;-69
2022/10/18 04:40:51;;;;;;;9.75;6.95;;;20.60;81.60;;;;;;5023400;28;20025;-69
2022/10/18 04:43:58;;;;;;;15.68;6.90;;;20.70;81.40;;;;;;5023979;28;20037;-70
2022/10/18 04:47:05;;;;;;;11.57;5.85;;;20.60;81.20;;;;;;5023864;28;20037;-69
2022/10/18 04:49:31;;;;;;;15.43;7.03;;;20.60;81.10;;;;;;5022296;28;20014;-69
2022/10/18 04:51:58;;;;;;;13.48;5.20;;;20.60;81.10;;;;;;5025272;28;20060;-67
2022/10/18 04:54:24;;;;;;;13.15;6.38;;;20.70;81.50;;;;;;5027124;28;20031;-68
2022/10/18 04:56:50;;;;;;;7.60;4.28;;;20.70;81.20;;;;;;5026486;28;20485;-68
2022/10/18 04:59:17;;;;;;;11.63;4.78;;;20.70;81.30;;;;;;5027421;28;20025;-67
2022/10/18 05:01:43;;;;;;;11.38;4.75;;;20.70;81.40;;;;;;5022609;28;20034;-67
2022/10/18 05:04:11;;;;;;;9.45;3.88;;;20.70;81.50;;;;;;5025475;28;20030;-68
2022/10/18 05:06:37;;;;;;;10.18;4.72;;;20.60;81.50;;;;;;5025612;28;20021;-67
2022/10/18 05:09:04;;;;;;;12.15;4.93;;;20.60;81.60;;;;;;5025032;28;20077;-67
2022/10/18 05:11:30;;;;;;;7.53;5.03;;;20.70;81.70;;;;;;5019769;28;20496;-67
2022/10/18 05:13:57;;;;;;;8.23;4.50;;;20.70;81.80;;;;;;5024437;28;20030;-68
2022/10/18 05:16:23;;;;;;;8.73;4.72;;;20.70;81.80;;;;;;5023701;28;20030;-68
2022/10/18 05:18:50;;;;;;;18.15;6.55;;;20.70;82.00;;;;;;5023176;28;20018;-67
2022/10/18 05:21:16;;;;;;;7.68;3.85;;;20.70;82.40;;;;;;5025314;28;20030;-67
2022/10/18 05:23:43;;;;;;;14.23;4.50;;;20.70;82.70;;;;;;5021959;28;20112;-68
2022/10/18 05:26:09;;;;;;;13.68;3.72;;;20.70;82.70;;;;;;5028759;28;20032;-67
2022/10/18 05:28:36;;;;;;;7.20;3.20;;;20.70;82.70;;;;;;5022202;28;20025;-68
2022/10/18 05:31:08;;;;;;;20.88;4.80;;;20.70;82.70;;;;;;5026211;28;20025;-68
2022/10/18 05:33:35;;;;;;;9.25;4.10;;;20.70;82.60;;;;;;5023107;28;20025;-67
2022/10/18 05:36:01;;;;;;;10.73;3.20;;;20.70;82.70;;;;;;5020118;28;20029;-68
2022/10/18 05:38:31;;;;;;;6.78;3.13;;;20.80;82.80;;;;;;5021160;28;20032;-69
2022/10/18 05:40:58;;;;;;;8.52;2.90;;;20.80;82.70;;;;;;5021305;28;20033;-69
2022/10/18 05:43:28;;;;;;;9.02;3.47;;;20.80;82.70;;;;;;5023046;28;20033;-69
2022/10/18 05:45:55;;;;;;;10.82;2.92;;;20.80;82.70;;;;;;5023122;28;20120;-69
2022/10/18 05:48:22;;;;;;;9.90;2.97;;;20.80;82.60;;;;;;5027545;28;20427;-69
2022/10/18 05:50:48;;;;;;;7.57;3.58;;;20.90;82.70;;;;;;5022238;28;20026;-68
2022/10/18 05:53:15;;;;;;;7.75;3.67;;;20.90;82.70;;;;;;5021896;28;20365;-67
2022/10/18 05:55:41;;;;;;;8.00;3.75;;;20.90;82.70;;;;;;5019531;28;20017;-67
2022/10/18 05:58:08;;;;;;;10.75;3.13;;;20.90;82.60;;;;;;5022608;28;20025;-68
2022/10/18 06:00:35;;;;;;;18.80;3.10;;;21.00;82.60;;;;;;5025068;28;20022;-69
2022/10/18 06:03:01;;;;;;;16.83;3.70;;;21.00;82.40;;;;;;5022352;28;20118;-67
2022/10/18 06:05:28;;;;;;;10.43;3.60;;;21.00;82.50;;;;;;5021292;28;20064;-69
2022/10/18 06:07:56;;;;;;;23.77;4.55;;;21.00;82.50;;;;;;5025865;28;20029;-68
2022/10/18 06:10:22;;;;;;;11.02;3.97;;;21.10;82.40;;;;;;5026036;28;20076;-67
2022/10/18 06:12:49;;;;;;;7.93;2.65;;;21.10;82.30;;;;;;5023263;28;20534;-68
2022/10/18 06:15:16;;;;;;;7.47;2.50;;;21.10;82.10;;;;;;5016856;28;20495;-68
2022/10/18 06:17:42;;;;;;;8.05;3.22;;;21.20;81.90;;;;;;5025333;28;20025;-68
2022/10/18 06:20:09;;;;;;;9.52;2.83;;;21.20;81.60;;;;;;5017835;28;20025;-68
2022/10/18 06:22:35;;;;;;;5.38;2.30;;;21.20;81.40;;;;;;5020964;28;20057;-69
2022/10/18 06:25:02;;;;;;;3.95;2.13;;;21.20;81.10;;;;;;5023243;28;20565;-68
2022/10/18 06:27:30;;;;;;;10.15;3.17;;;21.30;80.90;;;;;;5026554;28;20044;-67
2022/10/18 06:29:56;;;;;;;6.10;2.65;;;21.30;80.70;;;;;;5020802;28;20025;-70
2022/10/18 06:32:23;;;;;;;3.60;1.95;;;21.30;80.40;;;;;;5021626;28;20033;-68
2022/10/18 06:34:49;;;;;;;5.20;2.83;;;21.30;80.20;;;;;;5025301;28;20483;-69
2022/10/18 06:37:16;;;;;;;4.70;2.70;;;21.40;80.10;;;;;;5022575;28;20083;-68
2022/10/18 06:39:42;;;;;;;3.65;2.17;;;21.40;79.90;;;;;;5023565;28;20021;-67
2022/10/18 06:42:09;;;;;;;8.85;3.00;;;21.40;79.80;;;;;;5022368;28;20014;-67
2022/10/18 06:44:35;;;;;;;6.57;2.65;;;21.40;79.60;;;;;;5020730;28;20472;-67
2022/10/18 06:47:02;;;;;;;7.13;2.92;;;21.50;79.50;;;;;;5021030;28;20033;-68
2022/10/18 06:49:28;;;;;;;5.65;3.00;;;21.50;79.40;;;;;;5026608;28;20009;-67
2022/10/18 06:51:54;;;;;;;8.88;2.92;;;21.50;79.30;;;;;;5022460;28;20143;-67
2022/10/18 06:54:21;;;;;;;9.07;3.97;;;21.60;79.30;;;;;;5025826;28;20076;-67
2022/10/18 06:56:47;;;;;;;6.28;3.53;;;21.60;79.20;;;;;;5027437;28;20512;-67
2022/10/18 06:59:14;;;;;;;9.88;3.72;;;21.60;79.10;;;;;;5022752;28;20034;-67
2022/10/18 07:01:42;;;;;;;10.02;4.10;;;21.70;79.00;;;;;;5023857;28;20056;-67
2022/10/18 07:04:08;;;;;;;8.20;4.40;;;21.80;79.00;;;;;;5025524;28;20041;-67
2022/10/18 07:06:35;;;;;;;10.18;3.70;;;21.80;78.90;;;;;;5024336;28;20519;-68
2022/10/18 07:09:02;;;;;;;7.43;3.55;;;21.80;78.90;;;;;;5018468;28;20026;-67
2022/10/18 07:11:29;;;;;;;7.65;4.28;;;21.90;78.80;;;;;;5023459;28;20037;-67
2022/10/18 07:14:01;;;;;;;7.53;4.15;;;21.90;78.80;;;;;;5023954;28;20104;-67
2022/10/18 07:16:29;;;;;;;6.05;3.80;;;21.90;78.70;;;;;;5024088;28;20022;-67
2022/10/18 07:18:55;;;;;;;10.98;4.20;;;22.00;78.70;;;;;;5022827;28;20025;-67
2022/10/18 07:21:24;;;;;;;7.93;4.55;;;21.90;78.60;;;;;;5022714;28;20053;-67
2022/10/18 07:23:52;;;;;;;6.72;4.80;;;22.00;78.60;;;;;;5026683;28;20017;-68
2022/10/18 07:26:27;;;;;;;13.27;4.35;;;22.00;78.60;;;;;;5018275;28;20507;-66
2022/10/18 07:29:01;;;;;;;6.43;3.63;;;22.00;78.50;;;;;;5025246;28;20549;-69
2022/10/18 07:31:28;;;;;;;7.18;3.85;;;22.10;78.50;;;;;;5028158;28;20121;-68
2022/10/18 07:33:55;;;;;;;10.15;2.60;;;22.00;78.40;;;;;;5022987;28;20069;-67
2022/10/18 07:36:23;;;;;;;9.43;4.10;;;22.00;78.20;;;;;;5028942;28;20025;-67
2022/10/18 07:38:50;;;;;;;7.05;3.95;;;22.10;78.00;;;;;;5022274;28;20033;-67
2022/10/18 07:41:18;;;;;;;13.75;3.08;;;22.10;77.80;;;;;;5027238;28;20040;-67
2022/10/18 07:43:46;;;;;;;9.95;2.92;;;22.10;77.70;;;;;;5026158;28;20048;-67
2022/10/18 07:46:14;;;;;;;18.70;5.57;;;22.10;78.50;;;;;;5022825;28;20049;-67
2022/10/18 07:48:41;;;;;;;12.43;4.20;;;22.20;79.10;;;;;;5027394;28;20412;-70
2022/10/18 07:51:08;;;;;;;13.82;4.30;;;22.20;79.20;;;;;;5028313;28;20053;-67
2022/10/18 07:53:35;;;;;;;7.38;4.05;;;22.30;78.80;;;;;;5024553;28;20080;-66
2022/10/18 07:56:04;;;;;;;4.68;2.70;;;22.30;78.10;;;;;;5022139;28;20025;-68
2022/10/18 07:58:33;;;;;;;5.95;2.65;;;22.30;77.70;;;;;;5027899;28;20504;-66
2022/10/18 08:01:07;;;;;;;9.70;3.17;;;22.40;77.30;;;;;;5020976;28;20476;-67
2022/10/18 10:20:04;;;;;;;6.68;3.60;;;24.80;71.60;;;;;;6227944;22;20020;-76
2022/10/18 10:22:41;;;;;;;9.70;3.17;;;24.90;71.00;;;;;;6280580;22;20012;-75
2022/10/18 10:25:30;;;;;;;7.28;2.75;;;25.00;70.90;;;;;;6279740;22;19996;-76
2022/10/18 10:28:10;;;;;;;8.70;3.17;;;25.00;70.30;;;;;;6280672;22;20083;-76
2022/10/18 10:30:37;;;;;;;3.10;1.77;;;25.10;70.10;;;;;;6279885;22;20004;-75
2022/10/18 10:33:05;;;;;;;4.72;2.10;;;25.20;70.00;;;;;;6280899;22;20004;-73
2022/10/18 10:35:35;;;;;;;7.47;2.30;;;25.20;70.10;;;;;;6281746;22;20000;-75
2022/10/18 10:38:02;;;;;;;8.45;2.40;;;25.30;70.10;;;;;;6279829;22;20000;-74
2022/10/18 10:40:34;;;;;;;8.25;3.72;;;25.30;70.00;;;;;;6280018;22;20007;-76
2022/10/18 10:43:04;;;;;;;3.97;1.95;;;25.40;69.80;;;;;;6279820;22;20007;-75
2022/10/18 10:45:37;;;;;;;5.60;2.75;;;25.50;69.60;;;;;;6280717;22;20003;-76
2022/10/18 10:48:13;;;;;;;6.22;3.15;;;25.50;69.50;;;;;;6279674;22;20059;-76
2022/10/18 10:51:05;;;;;;;6.30;3.03;;;25.60;69.40;;;;;;6280285;22;20296;-76
2022/10/18 10:53:37;;;;;;;8.82;2.53;;;25.60;68.90;;;;;;6280848;22;20008;-76
2022/10/18 10:56:05;;;;;;;14.70;2.85;;;25.70;68.70;;;;;;6279149;22;20014;-77
2022/10/18 10:58:38;;;;;;;4.60;2.35;;;25.70;68.30;;;;;;6280412;22;19999;-75
2022/10/18 11:01:25;;;;;;;9.63;2.97;;;25.80;68.20;;;;;;6280369;22;20003;-76
2022/10/18 11:03:55;;;;;;;9.00;3.17;;;25.80;67.90;;;;;;6252233;22;20018;-74
2022/10/18 11:06:40;;;;;;;10.93;3.25;;;25.90;67.50;;;;;;6280961;22;20000;-77
2022/10/18 11:09:18;;;;;;;7.43;3.53;;;25.90;67.40;;;;;;6279294;22;19999;-78
2022/10/18 11:12:00;;;;;;;6.65;2.80;;;25.90;67.30;;;;;;6253223;22;20006;-75
2022/10/18 11:14:32;;;;;;;8.07;3.55;;;26.00;67.10;;;;;;6276047;22;20022;-77
2022/10/18 11:17:14;;;;;;;6.50;2.90;;;26.10;66.90;;;;;;6245058;22;20373;-75
2022/10/18 11:20:10;;;;;;;5.53;3.17;;;26.10;66.30;;;;;;6244973;22;20806;-76
2022/10/18 11:23:13;;;;;;;5.40;3.47;;;26.20;66.20;;;;;;6241794;23;20012;-76
2022/10/18 11:25:59;;;;;;;5.80;2.83;;;26.20;66.00;;;;;;6217489;23;20007;-77
2022/10/18 11:28:34;;;;;;;6.10;2.80;;;26.30;65.90;;;;;;6242500;23;20008;-76
2022/10/18 11:31:11;;;;;;;3.97;2.35;;;26.40;65.80;;;;;;6241651;23;20000;-76
2022/10/18 11:34:29;;;;;;;4.88;2.50;;;26.40;65.40;;;;;;6242474;23;20000;-76
2022/10/18 11:37:17;;;;;;;7.93;3.58;;;26.50;65.20;;;;;;6242667;23;20718;-76
2022/10/18 11:39:59;;;;;;;8.35;2.50;;;26.60;65.00;;;;;;6241307;23;20245;-77
2022/10/18 11:42:43;;;;;;;3.97;2.17;;;26.60;64.70;;;;;;6242500;23;20012;-77
2022/10/18 11:45:31;;;;;;;11.52;2.47;;;26.70;64.50;;;;;;6242970;23;20000;-76
2022/10/18 11:48:10;;;;;;;8.77;3.13;;;26.70;64.20;;;;;;6214492;23;20388;-76
2022/10/18 11:51:11;;;;;;;13.05;2.33;;;26.80;64.00;;;;;;6242639;23;20007;-76
2022/10/18 11:54:00;;;;;;;6.82;2.47;;;26.80;63.90;;;;;;6090916;23;20014;-74
2022/10/18 11:56:26;;;;;;;9.38;3.50;;;26.80;63.60;;;;;;6233297;23;20011;-77
2022/10/18 11:59:10;;;;;;;15.52;5.22;;;26.90;63.60;;;;;;6242545;23;20019;-77
2022/10/18 12:01:49;;;;;;;8.98;3.03;;;26.90;63.30;;;;;;6241729;23;20431;-76
2022/10/18 12:04:23;;;;;;;8.32;3.60;;;27.00;63.20;;;;;;6242339;23;20004;-76
2022/10/18 12:06:55;;;;;;;7.53;2.60;;;27.00;62.80;;;;;;6242867;23;20004;-78
2022/10/18 12:09:39;;;;;;;2.67;1.75;;;27.00;62.40;;;;;;6241184;23;20054;-76
2022/10/18 12:12:26;;;;;;;7.82;3.22;;;27.00;62.00;;;;;;6242061;23;20015;-77
2022/10/18 12:14:56;;;;;;;18.45;4.43;;;27.10;61.80;;;;;;6241410;23;20004;-78
2022/10/18 12:17:32;;;;;;;10.05;3.50;;;27.10;61.80;;;;;;6241973;23;20004;-75
2022/10/18 12:20:04;;;;;;;9.15;2.67;;;27.10;62.00;;;;;;6242179;23;20450;-76
2022/10/18 12:22:46;;;;;;;9.10;3.80;;;27.10;61.80;;;;;;6241497;23;20008;-77
2022/10/18 12:25:14;;;;;;;12.07;2.70;;;27.10;61.70;;;;;;6241476;23;20008;-76
2022/10/18 12:28:16;;;;;;;9.02;2.63;;;27.20;61.50;;;;;;6241336;23;20066;-77
2022/10/18 12:30:45;;;;;;;4.50;2.63;;;27.20;61.30;;;;;;6158159;23;20008;-76
2022/10/18 12:33:25;;;;;;;5.97;3.50;;;27.20;60.80;;;;;;6242600;23;20000;-75
2022/10/18 12:36:01;;;;;;;5.07;2.75;;;27.20;60.60;;;;;;6214087;23;20058;-77
2022/10/18 12:38:31;;;;;;;5.60;2.42;;;27.20;60.60;;;;;;6214984;23;20007;-77
2022/10/18 12:40:59;;;;;;;9.48;2.42;;;27.30;60.60;;;;;;6241417;23;19996;-77
2022/10/18 12:43:35;;;;;;;4.25;3.35;;;27.30;60.40;;;;;;6241444;23;20014;-75
2022/10/18 12:46:07;;;;;;;4.75;2.40;;;27.30;60.50;;;;;;6241877;23;20024;-76
2022/10/18 12:48:42;;;;;;;5.30;2.42;;;27.30;60.30;;;;;;6240984;23;20533;-76
2022/10/18 12:51:16;;;;;;;3.72;2.50;;;27.40;60.10;;;;;;6242132;23;20014;-77
2022/10/18 12:53:46;;;;;;;6.95;1.90;;;27.40;60.00;;;;;;6240937;23;20011;-75
2022/10/18 12:56:28;;;;;;;6.97;2.28;;;27.40;60.00;;;;;;6214500;23;20047;-76
2022/10/18 12:59:13;;;;;;;10.23;2.78;;;27.40;60.10;;;;;;6242394;23;20384;-74
2022/10/18 13:02:06;;;;;;;7.68;2.10;;;27.50;60.00;;;;;;6240311;23;20466;-76
2022/10/18 13:04:34;;;;;;;5.00;2.70;;;27.50;59.90;;;;;;6225910;23;20392;-76
2022/10/18 13:07:07;;;;;;;4.88;2.63;;;27.50;60.00;;;;;;6241470;23;20035;-77
2022/10/18 13:09:40;;;;;;;4.72;2.45;;;27.50;60.30;;;;;;6240828;23;20035;-77
2022/10/18 13:12:09;;;;;;;18.05;3.33;;;27.50;60.20;;;;;;6242141;23;19997;-77
2022/10/18 13:15:03;;;;;;;14.13;2.72;;;27.50;60.40;;;;;;6240367;23;20004;-76
2022/10/18 13:17:45;;;;;;;3.45;2.72;;;27.50;60.40;;;;;;6241453;22;20075;-76
2022/10/18 13:20:39;;;;;;;5.18;2.30;;;27.50;60.40;;;;;;6241569;23;20375;-75
2022/10/18 13:23:33;;;;;;;7.70;2.00;;;27.40;60.10;;;;;;6241020;23;20085;-74
2022/10/18 13:26:37;;;;;;;7.45;2.40;;;27.40;60.20;;;;;;6241583;23;20054;-75
2022/10/18 13:29:31;;;;;;;10.02;2.13;;;27.30;60.20;;;;;;6242273;23;20004;-78
2022/10/18 13:32:23;;;;;;;7.78;3.25;;;27.30;60.20;;;;;;6240415;23;20027;-75
2022/10/18 13:34:50;;;;;;;7.03;2.63;;;27.30;60.00;;;;;;6241862;23;20004;-76
2022/10/18 13:37:16;;;;;;;6.45;2.83;;;27.30;59.90;;;;;;6213847;23;20007;-77
2022/10/18 13:39:43;;;;;;;7.75;2.42;;;27.30;60.00;;;;;;6240992;23;20331;-77
2022/10/18 13:42:19;;;;;;;8.98;2.75;;;27.30;60.20;;;;;;6240660;23;20305;-76
2022/10/18 13:44:45;;;;;;;5.10;2.80;;;27.30;60.20;;;;;;6240242;23;20439;-76
2022/10/18 13:47:33;;;;;;;4.00;2.33;;;27.20;60.20;;;;;;6241928;23;20024;-76
2022/10/18 13:50:30;;;;;;;7.05;2.17;;;27.20;60.30;;;;;;6240909;23;20491;-78
2022/10/18 13:53:09;;;;;;;3.53;2.17;;;27.10;60.30;;;;;;6240223;23;20454;-78
2022/10/18 13:56:05;;;;;;;5.45;2.92;;;27.10;60.30;;;;;;6242102;23;20000;-78
2022/10/18 13:58:47;;;;;;;8.38;4.03;;;27.10;61.10;;;;;;6240728;23;20004;-78
2022/10/18 14:01:37;;;;;;;5.53;3.78;;;27.00;60.60;;;;;;6240672;23;20024;-78
2022/10/18 14:04:41;;;;;;;6.13;3.75;;;27.10;60.70;;;;;;6241080;23;20020;-73
2022/10/18 14:07:09;;;;;;;7.82;3.35;;;27.00;60.50;;;;;;6240434;23;20004;-75
2022/10/18 14:09:52;;;;;;;7.18;2.95;;;27.00;60.40;;;;;;6241321;23;19996;-75
2022/10/18 14:12:40;;;;;;;7.75;3.25;;;27.00;60.50;;;;;;6241506;23;20000;-75
2022/10/18 14:15:25;;;;;;;7.07;4.18;;;26.90;60.50;;;;;;6240208;23;20101;-75
2022/10/18 14:18:15;;;;;;;5.68;3.25;;;26.80;60.40;;;;;;6240683;22;20325;-77
2022/10/18 14:20:46;;;;;;;9.38;2.53;;;26.80;60.60;;;;;;6240130;23;20079;-73
2022/10/18 14:23:15;;;;;;;5.93;2.63;;;26.80;60.70;;;;;;6238443;23;20009;-73
2022/10/18 14:25:42;;;;;;;5.38;1.95;;;26.70;61.20;;;;;;6240721;23;20455;-72
2022/10/18 14:28:18;;;;;;;6.22;2.15;;;26.70;61.40;;;;;;6239113;23;20081;-72
2022/10/18 14:31:11;;;;;;;8.43;3.00;;;26.60;61.20;;;;;;6240671;23;20008;-72
2022/10/18 14:33:42;;;;;;;7.82;4.93;;;26.50;61.60;;;;;;6239403;23;20004;-74
2022/10/18 14:36:21;;;;;;;22.23;10.45;;;26.50;62.10;;;;;;6240032;23;19999;-71
2022/10/18 14:38:52;;;;;;;20.65;10.80;;;26.50;62.90;;;;;;6214048;23;20018;-73
2022/10/18 14:41:29;;;;;;;11.43;5.43;;;26.50;62.90;;;;;;6239254;23;20004;-72
2022/10/18 14:44:18;;;;;;;12.07;5.32;;;26.40;62.50;;;;;;6240955;23;20407;-73
2022/10/18 14:46:48;;;;;;;6.80;3.92;;;26.40;62.60;;;;;;6218413;23;20011;-73
2022/10/18 14:49:16;;;;;;;6.40;2.95;;;26.40;62.70;;;;;;6240562;23;20028;-72
2022/10/18 14:51:45;;;;;;;10.57;5.75;;;26.40;62.50;;;;;;6243194;23;20087;-73
2022/10/18 14:54:22;;;;;;;7.13;5.18;;;26.30;62.30;;;;;;6241399;23;20045;-73
2022/10/18 14:56:48;;;;;;;20.88;15.88;;;26.30;62.40;;;;;;6241852;23;20435;-76
2022/10/18 14:59:27;;;;;;;10.57;9.13;;;26.20;62.10;;;;;;6215519;23;20012;-74
2022/10/18 15:02:06;;;;;;;7.78;4.70;;;26.20;62.00;;;;;;6241972;23;20531;-74
2022/10/18 15:04:32;;;;;;;13.90;2.97;;;26.20;62.10;;;;;;6242897;23;20282;-74
2022/10/18 15:07:05;;;;;;;6.78;2.33;;;26.10;62.10;;;;;;6241133;23;20408;-73
2022/10/18 15:09:33;;;;;;;9.13;2.65;;;26.10;62.30;;;;;;6243656;23;20028;-74
2022/10/18 15:12:04;;;;;;;6.00;2.63;;;26.10;62.50;;;;;;6242290;23;20027;-75
2022/10/18 15:14:31;;;;;;;5.13;1.77;;;26.00;62.60;;;;;;6242675;23;20028;-75
2022/10/18 15:17:30;;;;;;;7.18;2.55;;;26.00;62.80;;;;;;6242261;23;20079;-75
2022/10/18 15:20:04;;;;;;;10.45;4.22;;;26.00;63.10;;;;;;6241312;23;20012;-73
2022/10/18 15:22:32;;;;;;;10.85;3.65;;;25.90;63.20;;;;;;6242619;23;20335;-73
2022/10/18 15:25:26;;;;;;;32.95;26.52;;;25.80;63.90;;;;;;6240608;23;19997;-74
2022/10/18 15:27:58;;;;;;;28.13;17.35;;;25.60;65.60;;;;;;6240638;23;20000;-76
2022/10/18 15:30:37;;;;;;;14.38;8.38;;;25.50;66.30;;;;;;6241726;23;20028;-75
2022/10/18 15:33:09;;;;;;;14.45;5.05;;;25.50;66.90;;;;;;6202015;23;20014;-76
2022/10/18 15:35:37;;;;;;;10.25;4.82;;;25.50;66.90;;;;;;6239439;23;19996;-76
2022/10/18 15:38:20;;;;;;;10.30;4.50;;;25.50;66.20;;;;;;6239697;23;20067;-75
2022/10/18 15:40:47;;;;;;;5.43;2.30;;;25.50;65.80;;;;;;6240932;23;20000;-75
2022/10/18 15:43:29;;;;;;;7.63;2.30;;;25.50;65.50;;;;;;6244108;23;20012;-74
2022/10/18 15:46:02;;;;;;;5.90;2.65;;;25.50;65.50;;;;;;6244820;23;20004;-73